PWSweather.com
Personal Weather Stations
Station Observations
31648434
Juan Xiii, San Fernando Del Valle De CatamarcaAR 4700

Juan XiiiSan Fernando Del Valle De CatamarcaAR 4700

Lat: -28.467778, Lon: -65.795278

Elevation: 578

Station Type: WH1081

Latest ConditionsUpdated 4:57:00 AM GMT-03:57 Sunday, Apr 23, 2017
Currently Today's Max Today's Min Today's Average
Temperature 66.9°F19.4°C 67.8°F19.9°C 66.7°F19.3°C 67.1°F19.5°C
Dew Point 62.0°F16.7°C 62.6°F17.0°C 61.4°F16.3°C 62.2°F16.8°C
Winds 3.8 mph NE6.1 kmh NE 9.8 mph NNE15.8 kmh NNE - 4.2 mph 6.8 kmh
Wind Gusts 14.5 mph23.3 kmh 17.4 mph28.0 kmh - -
Humidity 84% 85% 82% 84%
Pressure 29.84 in1010.5 mb 29.93 in1013.5 mb 29.84 in1010.5 mb -
Hour Temp Dew Point Humidity Winds Wind Gusts Pressure Precip Precip Rate Daily Precip Total
04:57 AM 66.9°F19.4°C 62.0°F16.7°C 84% 3.8 mph NE6.1 kmh NE 14.5 mph23.3 kmh 29.84 in1010.5 mb 0.00 in0.0 mm 0.00 in0.0 mm 0.00 in0.0 mm
04:56 AM 66.9°F19.4°C 62.0°F16.7°C 84% 6.9 mph NE11.1 kmh NE 14.5 mph23.3 kmh 29.84 in1010.5 mb 0.00 in0.0 mm 0.00 in0.0 mm 0.00 in0.0 mm
04:55 AM 66.9°F19.4°C 62.0°F16.7°C 84% 8.3 mph NE13.4 kmh NE 14.5 mph23.3 kmh 29.84 in1010.5 mb 0.00 in0.0 mm 0.00 in0.0 mm 0.00 in0.0 mm
04:54 AM 66.9°F19.4°C 62.0°F16.7°C 84% 6.0 mph NE9.7 kmh NE 14.5 mph23.3 kmh 29.84 in1010.5 mb 0.00 in0.0 mm 0.00 in0.0 mm 0.00 in0.0 mm
04:53 AM 66.9°F19.4°C 62.0°F16.7°C 84% 4.5 mph NE7.2 kmh NE 9.2 mph14.8 kmh 29.84 in1010.5 mb 0.00 in0.0 mm 0.00 in0.0 mm 0.00 in0.0 mm
04:52 AM 67.1°F19.5°C 62.1°F16.7°C 84% 4.5 mph NE7.2 kmh NE 9.2 mph14.8 kmh 29.84 in1010.5 mb 0.00 in0.0 mm 0.00 in0.0 mm 0.00 in0.0 mm
04:51 AM 66.9°F19.4°C 62.3°F16.8°C 85% 3.8 mph NE6.1 kmh NE 9.2 mph14.8 kmh 29.84 in1010.5 mb 0.00 in0.0 mm 0.00 in0.0 mm 0.00 in0.0 mm
04:50 AM 66.9°F19.4°C 62.3°F16.8°C 85% 3.8 mph NE6.1 kmh NE 9.2 mph14.8 kmh 29.85 in1010.8 mb 0.00 in0.0 mm 0.00 in0.0 mm 0.00 in0.0 mm
04:49 AM 66.9°F19.4°C 62.3°F16.8°C 85% 5.4 mph NNE8.7 kmh NNE 11.4 mph18.3 kmh 29.85 in1010.8 mb 0.00 in0.0 mm 0.00 in0.0 mm 0.00 in0.0 mm
04:48 AM 67.1°F19.5°C 62.5°F16.9°C 85% 3.1 mph NE5.0 kmh NE 11.4 mph18.3 kmh 29.85 in1010.8 mb 0.00 in0.0 mm 0.00 in0.0 mm 0.00 in0.0 mm
04:47 AM 66.9°F19.4°C 62.3°F16.8°C 85% 4.5 mph NE7.2 kmh NE 11.4 mph18.3 kmh 29.85 in1010.8 mb 0.00 in0.0 mm 0.00 in0.0 mm 0.00 in0.0 mm
04:46 AM 66.9°F19.4°C 62.3°F16.8°C 85% 4.5 mph NE7.2 kmh NE 11.4 mph18.3 kmh 29.85 in1010.8 mb 0.00 in0.0 mm 0.00 in0.0 mm 0.00 in0.0 mm
04:45 AM 66.9°F19.4°C 62.3°F16.8°C 85% 3.1 mph NE5.0 kmh NE 11.4 mph18.3 kmh 29.84 in1010.5 mb 0.00 in0.0 mm 0.00 in0.0 mm 0.00 in0.0 mm
04:44 AM 66.9°F19.4°C 62.3°F16.8°C 85% 2.2 mph NE3.5 kmh NE 11.4 mph18.3 kmh 29.85 in1010.8 mb 0.00 in0.0 mm 0.00 in0.0 mm 0.00 in0.0 mm
04:43 AM 66.9°F19.4°C 62.3°F16.8°C 85% 3.1 mph NNE5.0 kmh NNE 11.4 mph18.3 kmh 29.85 in1010.8 mb 0.00 in0.0 mm 0.00 in0.0 mm 0.00 in0.0 mm
04:42 AM 67.1°F19.5°C 62.5°F16.9°C 85% 3.1 mph NNE5.0 kmh NNE 11.4 mph18.3 kmh 29.85 in1010.8 mb 0.00 in0.0 mm 0.00 in0.0 mm 0.00 in0.0 mm
04:41 AM 66.9°F19.4°C 62.3°F16.8°C 85% 4.5 mph NNE7.2 kmh NNE 11.4 mph18.3 kmh 29.85 in1010.8 mb 0.00 in0.0 mm 0.00 in0.0 mm 0.00 in0.0 mm
04:40 AM 66.9°F19.4°C 62.3°F16.8°C 85% 3.8 mph NNE6.1 kmh NNE 11.4 mph18.3 kmh 29.85 in1010.8 mb 0.00 in0.0 mm 0.00 in0.0 mm 0.00 in0.0 mm
04:39 AM 67.1°F19.5°C 62.5°F16.9°C 85% 6.0 mph NNE9.7 kmh NNE 11.4 mph18.3 kmh 29.85 in1010.8 mb 0.00 in0.0 mm 0.00 in0.0 mm 0.00 in0.0 mm
04:38 AM 66.9°F19.4°C 62.3°F16.8°C 85% 3.8 mph NNE6.1 kmh NNE 11.4 mph18.3 kmh 29.85 in1010.8 mb 0.00 in0.0 mm 0.00 in0.0 mm 0.00 in0.0 mm
04:37 AM 67.1°F19.5°C 62.5°F16.9°C 85% 4.5 mph NNE7.2 kmh NNE 11.4 mph18.3 kmh 29.85 in1010.8 mb 0.00 in0.0 mm 0.00 in0.0 mm 0.00 in0.0 mm
04:36 AM 66.9°F19.4°C 62.3°F16.8°C 85% 3.8 mph NNE6.1 kmh NNE 11.4 mph18.3 kmh 29.85 in1010.8 mb 0.00 in0.0 mm 0.00 in0.0 mm 0.00 in0.0 mm
04:35 AM 66.9°F19.4°C 62.3°F16.8°C 85% 4.5 mph NE7.2 kmh NE 11.4 mph18.3 kmh 29.86 in1011.2 mb 0.00 in0.0 mm 0.00 in0.0 mm 0.00 in0.0 mm
04:34 AM 66.9°F19.4°C 62.3°F16.8°C 85% 6.0 mph NE9.7 kmh NE 11.4 mph18.3 kmh 29.85 in1010.8 mb 0.00 in0.0 mm 0.00 in0.0 mm 0.00 in0.0 mm
04:33 AM 67.1°F19.5°C 62.5°F16.9°C 85% 4.5 mph NE7.2 kmh NE 11.4 mph18.3 kmh 29.85 in1010.8 mb 0.00 in0.0 mm 0.00 in0.0 mm 0.00 in0.0 mm
04:32 AM 66.9°F19.4°C 62.3°F16.8°C 85% 3.8 mph NNE6.1 kmh NNE 11.4 mph18.3 kmh 29.85 in1010.8 mb 0.00 in0.0 mm 0.00 in0.0 mm 0.00 in0.0 mm
04:31 AM 67.1°F19.5°C 62.5°F16.9°C 85% 5.4 mph NNE8.7 kmh NNE 11.4 mph18.3 kmh 29.85 in1010.8 mb 0.00 in0.0 mm 0.00 in0.0 mm 0.00 in0.0 mm
04:30 AM 67.1°F19.5°C 62.5°F16.9°C 85% 4.5 mph NE7.2 kmh NE 11.4 mph18.3 kmh 29.86 in1011.2 mb 0.00 in0.0 mm 0.00 in0.0 mm 0.00 in0.0 mm
04:29 AM 67.1°F19.5°C 62.5°F16.9°C 85% 5.4 mph NNE8.7 kmh NNE 11.4 mph18.3 kmh 29.86 in1011.2 mb 0.00 in0.0 mm 0.00 in0.0 mm 0.00 in0.0 mm
04:28 AM 66.9°F19.4°C 62.3°F16.8°C 85% 4.5 mph NE7.2 kmh NE 11.4 mph18.3 kmh 29.86 in1011.2 mb 0.00 in0.0 mm 0.00 in0.0 mm 0.00 in0.0 mm
04:27 AM 67.1°F19.5°C 62.5°F16.9°C 85% 6.9 mph NE11.1 kmh NE 12.1 mph19.5 kmh 29.86 in1011.2 mb 0.00 in0.0 mm 0.00 in0.0 mm 0.00 in0.0 mm
04:26 AM 67.1°F19.5°C 62.5°F16.9°C 85% 5.4 mph NNE8.7 kmh NNE 12.1 mph19.5 kmh 29.86 in1011.2 mb 0.00 in0.0 mm 0.00 in0.0 mm 0.00 in0.0 mm
04:25 AM 66.9°F19.4°C 62.3°F16.8°C 85% 5.4 mph NNE8.7 kmh NNE 12.1 mph19.5 kmh 29.86 in1011.2 mb 0.00 in0.0 mm 0.00 in0.0 mm 0.00 in0.0 mm
04:24 AM 66.9°F19.4°C 62.3°F16.8°C 85% 6.0 mph NNE9.7 kmh NNE 12.1 mph19.5 kmh 29.86 in1011.2 mb 0.00 in0.0 mm 0.00 in0.0 mm 0.00 in0.0 mm
04:23 AM 67.1°F19.5°C 62.1°F16.7°C 84% 3.1 mph NNE5.0 kmh NNE 12.1 mph19.5 kmh 29.86 in1011.2 mb 0.00 in0.0 mm 0.00 in0.0 mm 0.00 in0.0 mm
04:22 AM 67.1°F19.5°C 62.5°F16.9°C 85% 6.0 mph NE9.7 kmh NE 12.1 mph19.5 kmh 29.86 in1011.2 mb 0.00 in0.0 mm 0.00 in0.0 mm 0.00 in0.0 mm
04:21 AM 66.9°F19.4°C 62.0°F16.7°C 84% 3.1 mph NE5.0 kmh NE 12.1 mph19.5 kmh 29.86 in1011.2 mb 0.00 in0.0 mm 0.00 in0.0 mm 0.00 in0.0 mm
04:20 AM 67.1°F19.5°C 62.1°F16.7°C 84% 2.2 mph NE3.5 kmh NE 12.1 mph19.5 kmh 29.86 in1011.2 mb 0.00 in0.0 mm 0.00 in0.0 mm 0.00 in0.0 mm
04:19 AM 67.1°F19.5°C 62.5°F16.9°C 85% 3.8 mph NE6.1 kmh NE 12.1 mph19.5 kmh 29.86 in1011.2 mb 0.00 in0.0 mm 0.00 in0.0 mm 0.00 in0.0 mm
04:18 AM 67.1°F19.5°C 62.5°F16.9°C 85% 3.8 mph NE6.1 kmh NE 12.1 mph19.5 kmh 29.86 in1011.2 mb 0.00 in0.0 mm 0.00 in0.0 mm 0.00 in0.0 mm
04:17 AM 66.9°F19.4°C 62.3°F16.8°C 85% 5.4 mph NE8.7 kmh NE 12.1 mph19.5 kmh 29.86 in1011.2 mb 0.00 in0.0 mm 0.00 in0.0 mm 0.00 in0.0 mm
04:16 AM 66.9°F19.4°C 62.3°F16.8°C 85% 5.4 mph NE8.7 kmh NE 12.1 mph19.5 kmh 29.86 in1011.2 mb 0.00 in0.0 mm 0.00 in0.0 mm 0.00 in0.0 mm
04:15 AM 66.9°F19.4°C 62.3°F16.8°C 85% 1.6 mph NE2.6 kmh NE 12.1 mph19.5 kmh 29.86 in1011.2 mb 0.00 in0.0 mm 0.00 in0.0 mm 0.00 in0.0 mm
04:14 AM 67.1°F19.5°C 62.5°F16.9°C 85% 2.2 mph ENE3.5 kmh ENE 12.1 mph19.5 kmh 29.86 in1011.2 mb 0.00 in0.0 mm 0.00 in0.0 mm 0.00 in0.0 mm
04:13 AM 67.1°F19.5°C 62.5°F16.9°C 85% 5.4 mph ENE8.7 kmh ENE 12.1 mph19.5 kmh 29.86 in1011.2 mb 0.00 in0.0 mm 0.00 in0.0 mm 0.00 in0.0 mm
04:12 AM 67.1°F19.5°C 62.5°F16.9°C 85% 6.0 mph ENE9.7 kmh ENE 12.1 mph19.5 kmh 29.86 in1011.2 mb 0.00 in0.0 mm 0.00 in0.0 mm 0.00 in0.0 mm
04:11 AM 67.1°F19.5°C 62.5°F16.9°C 85% 3.8 mph ENE6.1 kmh ENE 12.1 mph19.5 kmh 29.86 in1011.2 mb 0.00 in0.0 mm 0.00 in0.0 mm 0.00 in0.0 mm
04:10 AM 67.3°F19.6°C 62.6°F17.0°C 85% 6.0 mph NE9.7 kmh NE 12.1 mph19.5 kmh 29.86 in1011.2 mb 0.00 in0.0 mm 0.00 in0.0 mm 0.00 in0.0 mm
04:09 AM 67.1°F19.5°C 62.5°F16.9°C 85% 5.4 mph NE8.7 kmh NE 12.1 mph19.5 kmh 29.86 in1011.2 mb 0.00 in0.0 mm 0.00 in0.0 mm 0.00 in0.0 mm
04:08 AM 67.1°F19.5°C 62.5°F16.9°C 85% 5.4 mph NE8.7 kmh NE 14.5 mph23.3 kmh 29.86 in1011.2 mb 0.00 in0.0 mm 0.00 in0.0 mm 0.00 in0.0 mm
04:07 AM 67.1°F19.5°C 62.5°F16.9°C 85% 3.8 mph NE6.1 kmh NE 14.5 mph23.3 kmh 29.86 in1011.2 mb 0.00 in0.0 mm 0.00 in0.0 mm 0.00 in0.0 mm
04:06 AM 67.1°F19.5°C 62.5°F16.9°C 85% 3.8 mph NE6.1 kmh NE 14.5 mph23.3 kmh 29.86 in1011.2 mb 0.00 in0.0 mm 0.00 in0.0 mm 0.00 in0.0 mm
04:05 AM 67.3°F19.6°C 62.6°F17.0°C 85% 6.9 mph NE11.1 kmh NE 14.5 mph23.3 kmh 29.86 in1011.2 mb 0.00 in0.0 mm 0.00 in0.0 mm 0.00 in0.0 mm
04:04 AM 67.1°F19.5°C 62.5°F16.9°C 85% 5.4 mph NNE8.7 kmh NNE 14.5 mph23.3 kmh 29.86 in1011.2 mb 0.00 in0.0 mm 0.00 in0.0 mm 0.00 in0.0 mm
04:03 AM 67.1°F19.5°C 62.5°F16.9°C 85% 4.5 mph NNE7.2 kmh NNE 14.5 mph23.3 kmh 29.86 in1011.2 mb 0.00 in0.0 mm 0.00 in0.0 mm 0.00 in0.0 mm
04:02 AM 67.1°F19.5°C 62.5°F16.9°C 85% 3.8 mph NNE6.1 kmh NNE 14.5 mph23.3 kmh 29.86 in1011.2 mb 0.00 in0.0 mm 0.00 in0.0 mm 0.00 in0.0 mm
04:01 AM 67.1°F19.5°C 62.5°F16.9°C 85% 4.5 mph NNE7.2 kmh NNE 14.5 mph23.3 kmh 29.86 in1011.2 mb 0.00 in0.0 mm 0.00 in0.0 mm 0.00 in0.0 mm
04:00 AM 67.1°F19.5°C 62.5°F16.9°C 85% 6.9 mph NE11.1 kmh NE 14.5 mph23.3 kmh 29.86 in1011.2 mb 0.00 in0.0 mm 0.00 in0.0 mm 0.00 in0.0 mm
03:59 AM 67.1°F19.5°C 62.5°F16.9°C 85% 3.8 mph NE6.1 kmh NE 14.5 mph23.3 kmh 29.86 in1011.2 mb 0.00 in0.0 mm 0.00 in0.0 mm 0.00 in0.0 mm
03:58 AM 67.1°F19.5°C 62.5°F16.9°C 85% 6.9 mph NE11.1 kmh NE 14.5 mph23.3 kmh 29.87 in1011.5 mb 0.00 in0.0 mm 0.00 in0.0 mm 0.00 in0.0 mm
03:57 AM 67.1°F19.5°C 62.5°F16.9°C 85% 5.4 mph NE8.7 kmh NE 10.7 mph17.2 kmh 29.86 in1011.2 mb 0.00 in0.0 mm 0.00 in0.0 mm 0.00 in0.0 mm
03:56 AM 67.1°F19.5°C 62.5°F16.9°C 85% 3.1 mph ENE5.0 kmh ENE 12.1 mph19.5 kmh 29.86 in1011.2 mb 0.00 in0.0 mm 0.00 in0.0 mm 0.00 in0.0 mm
03:55 AM 67.1°F19.5°C 62.5°F16.9°C 85% 3.8 mph ENE6.1 kmh ENE 12.1 mph19.5 kmh 29.86 in1011.2 mb 0.00 in0.0 mm 0.00 in0.0 mm 0.00 in0.0 mm
03:54 AM 67.1°F19.5°C 62.5°F16.9°C 85% 3.1 mph ENE5.0 kmh ENE 12.1 mph19.5 kmh 29.86 in1011.2 mb 0.00 in0.0 mm 0.00 in0.0 mm 0.00 in0.0 mm
03:53 AM 67.1°F19.5°C 62.5°F16.9°C 85% 4.5 mph ENE7.2 kmh ENE 12.1 mph19.5 kmh 29.86 in1011.2 mb 0.00 in0.0 mm 0.00 in0.0 mm 0.00 in0.0 mm
03:52 AM 67.1°F19.5°C 62.5°F16.9°C 85% 4.5 mph ENE7.2 kmh ENE 12.1 mph19.5 kmh 29.86 in1011.2 mb 0.00 in0.0 mm 0.00 in0.0 mm 0.00 in0.0 mm
03:51 AM 67.1°F19.5°C 62.5°F16.9°C 85% 3.8 mph E6.1 kmh E 12.1 mph19.5 kmh 29.86 in1011.2 mb 0.00 in0.0 mm 0.00 in0.0 mm 0.00 in0.0 mm
03:50 AM 67.1°F19.5°C 62.5°F16.9°C 85% 5.4 mph ENE8.7 kmh ENE 12.1 mph19.5 kmh 29.86 in1011.2 mb 0.00 in0.0 mm 0.00 in0.0 mm 0.00 in0.0 mm
03:49 AM 67.1°F19.5°C 62.5°F16.9°C 85% 4.5 mph NE7.2 kmh NE 12.1 mph19.5 kmh 29.87 in1011.5 mb 0.00 in0.0 mm 0.00 in0.0 mm 0.00 in0.0 mm
03:48 AM 67.1°F19.5°C 62.5°F16.9°C 85% 4.5 mph ENE7.2 kmh ENE 12.1 mph19.5 kmh 29.87 in1011.5 mb 0.00 in0.0 mm 0.00 in0.0 mm 0.00 in0.0 mm
03:47 AM 67.1°F19.5°C 62.1°F16.7°C 84% 4.5 mph ENE7.2 kmh ENE 12.1 mph19.5 kmh 29.87 in1011.5 mb 0.00 in0.0 mm 0.00 in0.0 mm 0.00 in0.0 mm
03:46 AM 67.1°F19.5°C 62.5°F16.9°C 85% 5.4 mph NE8.7 kmh NE 12.1 mph19.5 kmh 29.87 in1011.5 mb 0.00 in0.0 mm 0.00 in0.0 mm 0.00 in0.0 mm
03:45 AM 67.1°F19.5°C 62.5°F16.9°C 85% 5.4 mph ENE8.7 kmh ENE 14.5 mph23.3 kmh 29.87 in1011.5 mb 0.00 in0.0 mm 0.00 in0.0 mm 0.00 in0.0 mm
03:44 AM 66.9°F19.4°C 62.3°F16.8°C 85% 3.8 mph ENE6.1 kmh ENE 14.5 mph23.3 kmh 29.87 in1011.5 mb 0.00 in0.0 mm 0.00 in0.0 mm 0.00 in0.0 mm
03:43 AM 66.9°F19.4°C 62.3°F16.8°C 85% 2.2 mph ENE3.5 kmh ENE 14.5 mph23.3 kmh 29.87 in1011.5 mb 0.00 in0.0 mm 0.00 in0.0 mm 0.00 in0.0 mm
03:42 AM 66.9°F19.4°C 62.3°F16.8°C 85% 3.8 mph ENE6.1 kmh ENE 14.5 mph23.3 kmh 29.87 in1011.5 mb 0.00 in0.0 mm 0.00 in0.0 mm 0.00 in0.0 mm
03:41 AM 66.9°F19.4°C 62.0°F16.7°C 84% 4.5 mph ENE7.2 kmh ENE 14.5 mph23.3 kmh 29.87 in1011.5 mb 0.00 in0.0 mm 0.00 in0.0 mm 0.00 in0.0 mm
03:40 AM 66.9°F19.4°C 62.0°F16.7°C 84% 5.4 mph ENE8.7 kmh ENE 14.5 mph23.3 kmh 29.87 in1011.5 mb 0.00 in0.0 mm 0.00 in0.0 mm 0.00 in0.0 mm
03:39 AM 67.1°F19.5°C 62.5°F16.9°C 85% 5.4 mph NE8.7 kmh NE 14.5 mph23.3 kmh 29.87 in1011.5 mb 0.00 in0.0 mm 0.00 in0.0 mm 0.00 in0.0 mm
03:38 AM 66.9°F19.4°C 62.0°F16.7°C 84% 5.4 mph NE8.7 kmh NE 14.5 mph23.3 kmh 29.87 in1011.5 mb 0.00 in0.0 mm 0.00 in0.0 mm 0.00 in0.0 mm
03:37 AM 66.9°F19.4°C 62.0°F16.7°C 84% 3.8 mph NE6.1 kmh NE 14.5 mph23.3 kmh 29.87 in1011.5 mb 0.00 in0.0 mm 0.00 in0.0 mm 0.00 in0.0 mm
03:36 AM 66.9°F19.4°C 62.0°F16.7°C 84% 5.4 mph NE8.7 kmh NE 14.5 mph23.3 kmh 29.87 in1011.5 mb 0.00 in0.0 mm 0.00 in0.0 mm 0.00 in0.0 mm
03:35 AM 66.9°F19.4°C 62.0°F16.7°C 84% 5.4 mph NE8.7 kmh NE 11.4 mph18.3 kmh 29.87 in1011.5 mb 0.00 in0.0 mm 0.00 in0.0 mm 0.00 in0.0 mm
03:34 AM 67.1°F19.5°C 62.1°F16.7°C 84% 5.4 mph NE8.7 kmh NE 9.2 mph14.8 kmh 29.87 in1011.5 mb 0.00 in0.0 mm 0.00 in0.0 mm 0.00 in0.0 mm
03:33 AM 66.9°F19.4°C 62.0°F16.7°C 84% 2.2 mph NE3.5 kmh NE 9.2 mph14.8 kmh 29.87 in1011.5 mb 0.00 in0.0 mm 0.00 in0.0 mm 0.00 in0.0 mm
03:32 AM 66.9°F19.4°C 62.0°F16.7°C 84% 2.2 mph NE3.5 kmh NE 9.2 mph14.8 kmh 29.87 in1011.5 mb 0.00 in0.0 mm 0.00 in0.0 mm 0.00 in0.0 mm
03:31 AM 66.9°F19.4°C 62.0°F16.7°C 84% 3.1 mph NE5.0 kmh NE 9.2 mph14.8 kmh 29.87 in1011.5 mb 0.00 in0.0 mm 0.00 in0.0 mm 0.00 in0.0 mm
03:30 AM 66.9°F19.4°C 62.0°F16.7°C 84% 2.2 mph NE3.5 kmh NE 9.2 mph14.8 kmh 29.87 in1011.5 mb 0.00 in0.0 mm 0.00 in0.0 mm 0.00 in0.0 mm
03:29 AM 66.9°F19.4°C 62.0°F16.7°C 84% 4.5 mph NE7.2 kmh NE 9.2 mph14.8 kmh 29.87 in1011.5 mb 0.00 in0.0 mm 0.00 in0.0 mm 0.00 in0.0 mm
03:28 AM 66.9°F19.4°C 62.0°F16.7°C 84% 3.1 mph NE5.0 kmh NE 9.2 mph14.8 kmh 29.87 in1011.5 mb 0.00 in0.0 mm 0.00 in0.0 mm 0.00 in0.0 mm
03:27 AM 66.9°F19.4°C 62.0°F16.7°C 84% 3.1 mph NE5.0 kmh NE 9.2 mph14.8 kmh 29.87 in1011.5 mb 0.00 in0.0 mm 0.00 in0.0 mm 0.00 in0.0 mm
03:26 AM 66.9°F19.4°C 62.0°F16.7°C 84% 3.8 mph NE6.1 kmh NE 9.2 mph14.8 kmh 29.87 in1011.5 mb 0.00 in0.0 mm 0.00 in0.0 mm 0.00 in0.0 mm
03:25 AM 66.9°F19.4°C 62.0°F16.7°C 84% 5.4 mph NE8.7 kmh NE 9.2 mph14.8 kmh 29.87 in1011.5 mb 0.00 in0.0 mm 0.00 in0.0 mm 0.00 in0.0 mm
03:24 AM 66.9°F19.4°C 62.0°F16.7°C 84% 2.2 mph ENE3.5 kmh ENE 6.9 mph11.1 kmh 29.87 in1011.5 mb 0.00 in0.0 mm 0.00 in0.0 mm 0.00 in0.0 mm
03:23 AM 66.9°F19.4°C 62.0°F16.7°C 84% 3.1 mph ENE5.0 kmh ENE 6.9 mph11.1 kmh 29.87 in1011.5 mb 0.00 in0.0 mm 0.00 in0.0 mm 0.00 in0.0 mm
03:22 AM 66.9°F19.4°C 62.0°F16.7°C 84% 3.1 mph ENE5.0 kmh ENE 6.9 mph11.1 kmh 29.88 in1011.9 mb 0.00 in0.0 mm 0.00 in0.0 mm 0.00 in0.0 mm
03:21 AM 66.9°F19.4°C 62.0°F16.7°C 84% 3.1 mph ENE5.0 kmh ENE 7.6 mph12.2 kmh 29.88 in1011.9 mb 0.00 in0.0 mm 0.00 in0.0 mm 0.00 in0.0 mm
03:20 AM 66.9°F19.4°C 62.0°F16.7°C 84% 1.6 mph NE2.6 kmh NE 7.6 mph12.2 kmh 29.88 in1011.9 mb 0.00 in0.0 mm 0.00 in0.0 mm 0.00 in0.0 mm
03:19 AM 66.9°F19.4°C 62.0°F16.7°C 84% 1.6 mph NE2.6 kmh NE 7.6 mph12.2 kmh 29.87 in1011.5 mb 0.00 in0.0 mm 0.00 in0.0 mm 0.00 in0.0 mm
03:18 AM 66.9°F19.4°C 62.0°F16.7°C 84% 3.8 mph NE6.1 kmh NE 7.6 mph12.2 kmh 29.88 in1011.9 mb 0.00 in0.0 mm 0.00 in0.0 mm 0.00 in0.0 mm
03:17 AM 66.9°F19.4°C 62.0°F16.7°C 84% 3.1 mph ENE5.0 kmh ENE 7.6 mph12.2 kmh 29.87 in1011.5 mb 0.00 in0.0 mm 0.00 in0.0 mm 0.00 in0.0 mm
03:16 AM 66.9°F19.4°C 62.0°F16.7°C 84% 3.1 mph ENE5.0 kmh ENE 9.2 mph14.8 kmh 29.87 in1011.5 mb 0.00 in0.0 mm 0.00 in0.0 mm 0.00 in0.0 mm
03:15 AM 66.9°F19.4°C 62.0°F16.7°C 84% 3.1 mph ENE5.0 kmh ENE 9.2 mph14.8 kmh 29.88 in1011.9 mb 0.00 in0.0 mm 0.00 in0.0 mm 0.00 in0.0 mm
03:14 AM 66.9°F19.4°C 62.0°F16.7°C 84% 3.1 mph NE5.0 kmh NE 9.2 mph14.8 kmh 29.87 in1011.5 mb 0.00 in0.0 mm 0.00 in0.0 mm 0.00 in0.0 mm
03:13 AM 66.9°F19.4°C 62.0°F16.7°C 84% 3.1 mph NE5.0 kmh NE 9.2 mph14.8 kmh 29.87 in1011.5 mb 0.00 in0.0 mm 0.00 in0.0 mm 0.00 in0.0 mm
03:12 AM 66.9°F19.4°C 62.0°F16.7°C 84% 1.6 mph NE2.6 kmh NE 9.2 mph14.8 kmh 29.88 in1011.9 mb 0.00 in0.0 mm 0.00 in0.0 mm 0.00 in0.0 mm
03:11 AM 66.9°F19.4°C 62.0°F16.7°C 84% 3.1 mph NE5.0 kmh NE 9.2 mph14.8 kmh 29.88 in1011.9 mb 0.00 in0.0 mm 0.00 in0.0 mm 0.00 in0.0 mm
03:10 AM 66.9°F19.4°C 62.0°F16.7°C 84% 2.2 mph NE3.5 kmh NE 9.2 mph14.8 kmh 29.88 in1011.9 mb 0.00 in0.0 mm 0.00 in0.0 mm 0.00 in0.0 mm
03:09 AM 66.9°F19.4°C 62.0°F16.7°C 84% 2.2 mph ENE3.5 kmh ENE 9.2 mph14.8 kmh 29.88 in1011.9 mb 0.00 in0.0 mm 0.00 in0.0 mm 0.00 in0.0 mm
03:08 AM 66.9°F19.4°C 62.0°F16.7°C 84% 4.5 mph ENE7.2 kmh ENE 9.8 mph15.8 kmh 29.88 in1011.9 mb 0.00 in0.0 mm 0.00 in0.0 mm 0.00 in0.0 mm
03:07 AM 66.9°F19.4°C 62.0°F16.7°C 84% 3.1 mph NE5.0 kmh NE 9.8 mph15.8 kmh 29.88 in1011.9 mb 0.00 in0.0 mm 0.00 in0.0 mm 0.00 in0.0 mm
03:06 AM 66.9°F19.4°C 62.0°F16.7°C 84% 4.5 mph NE7.2 kmh NE 9.8 mph15.8 kmh 29.88 in1011.9 mb 0.00 in0.0 mm 0.00 in0.0 mm 0.00 in0.0 mm
03:05 AM 66.9°F19.4°C 62.0°F16.7°C 84% 5.4 mph NE8.7 kmh NE 9.8 mph15.8 kmh 29.88 in1011.9 mb 0.00 in0.0 mm 0.00 in0.0 mm 0.00 in0.0 mm
03:04 AM 66.9°F19.4°C 62.0°F16.7°C 84% 3.8 mph ENE6.1 kmh ENE 9.8 mph15.8 kmh 29.88 in1011.9 mb 0.00 in0.0 mm 0.00 in0.0 mm 0.00 in0.0 mm
03:03 AM 66.9°F19.4°C 62.0°F16.7°C 84% 4.5 mph NE7.2 kmh NE 9.8 mph15.8 kmh 29.88 in1011.9 mb 0.00 in0.0 mm 0.00 in0.0 mm 0.00 in0.0 mm
03:02 AM 66.9°F19.4°C 62.0°F16.7°C 84% 3.1 mph NE5.0 kmh NE 12.1 mph19.5 kmh 29.88 in1011.9 mb 0.00 in0.0 mm 0.00 in0.0 mm 0.00 in0.0 mm
03:01 AM 66.9°F19.4°C 62.0°F16.7°C 84% 3.8 mph NE6.1 kmh NE 12.1 mph19.5 kmh 29.88 in1011.9 mb 0.00 in0.0 mm 0.00 in0.0 mm 0.00 in0.0 mm
03:00 AM 66.9°F19.4°C 62.0°F16.7°C 84% 3.8 mph NE6.1 kmh NE 12.1 mph19.5 kmh 29.88 in1011.9 mb 0.00 in0.0 mm 0.00 in0.0 mm 0.00 in0.0 mm
02:59 AM 66.9°F19.4°C 62.0°F16.7°C 84% 4.5 mph NNE7.2 kmh NNE 12.1 mph19.5 kmh 29.88 in1011.9 mb 0.00 in0.0 mm 0.00 in0.0 mm 0.00 in0.0 mm
02:58 AM 66.9°F19.4°C 62.0°F16.7°C 84% 3.1 mph N5.0 kmh N 12.1 mph19.5 kmh 29.87 in1011.5 mb 0.00 in0.0 mm 0.00 in0.0 mm 0.00 in0.0 mm
02:57 AM 66.9°F19.4°C 62.0°F16.7°C 84% 3.1 mph N5.0 kmh N 12.1 mph19.5 kmh 29.87 in1011.5 mb 0.00 in0.0 mm 0.00 in0.0 mm 0.00 in0.0 mm
02:56 AM 66.9°F19.4°C 62.0°F16.7°C 84% 3.8 mph NNE6.1 kmh NNE 12.1 mph19.5 kmh 29.88 in1011.9 mb 0.00 in0.0 mm 0.00 in0.0 mm 0.00 in0.0 mm
02:55 AM 66.9°F19.4°C 62.0°F16.7°C 84% 3.8 mph NNE6.1 kmh NNE 12.1 mph19.5 kmh 29.88 in1011.9 mb 0.00 in0.0 mm 0.00 in0.0 mm 0.00 in0.0 mm
02:54 AM 66.9°F19.4°C 62.0°F16.7°C 84% 3.8 mph NNE6.1 kmh NNE 12.1 mph19.5 kmh 29.88 in1011.9 mb 0.00 in0.0 mm 0.00 in0.0 mm 0.00 in0.0 mm
02:53 AM 66.9°F19.4°C 62.0°F16.7°C 84% 3.1 mph NE5.0 kmh NE 12.1 mph19.5 kmh 29.88 in1011.9 mb 0.00 in0.0 mm 0.00 in0.0 mm 0.00 in0.0 mm
02:52 AM 66.9°F19.4°C 62.0°F16.7°C 84% 3.1 mph NE5.0 kmh NE 12.1 mph19.5 kmh 29.88 in1011.9 mb 0.00 in0.0 mm 0.00 in0.0 mm 0.00 in0.0 mm
02:51 AM 66.9°F19.4°C 62.0°F16.7°C 84% 6.0 mph NE9.7 kmh NE 12.1 mph19.5 kmh 29.89 in1012.2 mb 0.00 in0.0 mm 0.00 in0.0 mm 0.00 in0.0 mm
02:50 AM 66.9°F19.4°C 62.0°F16.7°C 84% 4.5 mph NE7.2 kmh NE 11.4 mph18.3 kmh 29.88 in1011.9 mb 0.00 in0.0 mm 0.00 in0.0 mm 0.00 in0.0 mm
02:49 AM 66.9°F19.4°C 62.0°F16.7°C 84% 3.8 mph NE6.1 kmh NE 13.6 mph21.9 kmh 29.89 in1012.2 mb 0.00 in0.0 mm 0.00 in0.0 mm 0.00 in0.0 mm
02:48 AM 66.9°F19.4°C 62.0°F16.7°C 84% 4.5 mph ENE7.2 kmh ENE 13.6 mph21.9 kmh 29.89 in1012.2 mb 0.00 in0.0 mm 0.00 in0.0 mm 0.00 in0.0 mm
02:47 AM 66.9°F19.4°C 62.0°F16.7°C 84% 6.0 mph ENE9.7 kmh ENE 13.6 mph21.9 kmh 29.88 in1011.9 mb 0.00 in0.0 mm 0.00 in0.0 mm 0.00 in0.0 mm
02:46 AM 67.1°F19.5°C 62.1°F16.7°C 84% 5.4 mph NE8.7 kmh NE 13.6 mph21.9 kmh 29.89 in1012.2 mb 0.00 in0.0 mm 0.00 in0.0 mm 0.00 in0.0 mm
02:45 AM 66.9°F19.4°C 62.0°F16.7°C 84% 3.8 mph ENE6.1 kmh ENE 13.6 mph21.9 kmh 29.89 in1012.2 mb 0.00 in0.0 mm 0.00 in0.0 mm 0.00 in0.0 mm
02:44 AM 67.1°F19.5°C 62.1°F16.7°C 84% 5.4 mph ENE8.7 kmh ENE 13.6 mph21.9 kmh 29.89 in1012.2 mb 0.00 in0.0 mm 0.00 in0.0 mm 0.00 in0.0 mm
02:43 AM 67.1°F19.5°C 62.1°F16.7°C 84% 3.8 mph ENE6.1 kmh ENE 13.6 mph21.9 kmh 29.89 in1012.2 mb 0.00 in0.0 mm 0.00 in0.0 mm 0.00 in0.0 mm
02:42 AM 66.9°F19.4°C 62.0°F16.7°C 84% 4.5 mph ENE7.2 kmh ENE 13.6 mph21.9 kmh 29.89 in1012.2 mb 0.00 in0.0 mm 0.00 in0.0 mm 0.00 in0.0 mm
02:41 AM 66.9°F19.4°C 62.0°F16.7°C 84% 6.9 mph ENE11.1 kmh ENE 13.6 mph21.9 kmh 29.89 in1012.2 mb 0.00 in0.0 mm 0.00 in0.0 mm 0.00 in0.0 mm
02:40 AM 66.9°F19.4°C 62.0°F16.7°C 84% 5.4 mph ENE8.7 kmh ENE 13.6 mph21.9 kmh 29.89 in1012.2 mb 0.00 in0.0 mm 0.00 in0.0 mm 0.00 in0.0 mm
02:39 AM 66.9°F19.4°C 62.0°F16.7°C 84% 6.9 mph ENE11.1 kmh ENE 13.6 mph21.9 kmh 29.89 in1012.2 mb 0.00 in0.0 mm 0.00 in0.0 mm 0.00 in0.0 mm
02:38 AM 66.9°F19.4°C 62.0°F16.7°C 84% 4.5 mph ENE7.2 kmh ENE 10.7 mph17.2 kmh 29.89 in1012.2 mb 0.00 in0.0 mm 0.00 in0.0 mm 0.00 in0.0 mm
02:37 AM 67.1°F19.5°C 62.1°F16.7°C 84% 4.5 mph ENE7.2 kmh ENE 10.7 mph17.2 kmh 29.89 in1012.2 mb 0.00 in0.0 mm 0.00 in0.0 mm 0.00 in0.0 mm
02:36 AM 66.9°F19.4°C 62.0°F16.7°C 84% 6.0 mph ENE9.7 kmh ENE 10.7 mph17.2 kmh 29.89 in1012.2 mb 0.00 in0.0 mm 0.00 in0.0 mm 0.00 in0.0 mm
02:35 AM 66.9°F19.4°C 62.0°F16.7°C 84% 3.8 mph NE6.1 kmh NE 9.2 mph14.8 kmh 29.89 in1012.2 mb 0.00 in0.0 mm 0.00 in0.0 mm 0.00 in0.0 mm
02:34 AM 67.1°F19.5°C 62.1°F16.7°C 84% 3.1 mph NE5.0 kmh NE 10.7 mph17.2 kmh 29.89 in1012.2 mb 0.00 in0.0 mm 0.00 in0.0 mm 0.00 in0.0 mm
02:33 AM 66.9°F19.4°C 62.0°F16.7°C 84% 2.2 mph NE3.5 kmh NE 10.7 mph17.2 kmh 29.89 in1012.2 mb 0.00 in0.0 mm 0.00 in0.0 mm 0.00 in0.0 mm
02:32 AM 67.1°F19.5°C 62.1°F16.7°C 84% 3.8 mph NE6.1 kmh NE 10.7 mph17.2 kmh 29.89 in1012.2 mb 0.00 in0.0 mm 0.00 in0.0 mm 0.00 in0.0 mm
02:31 AM 66.9°F19.4°C 62.0°F16.7°C 84% 3.8 mph NE6.1 kmh NE 10.7 mph17.2 kmh 29.89 in1012.2 mb 0.00 in0.0 mm 0.00 in0.0 mm 0.00 in0.0 mm
02:30 AM 66.9°F19.4°C 62.0°F16.7°C 84% 2.2 mph NE3.5 kmh NE 10.7 mph17.2 kmh 29.90 in1012.5 mb 0.00 in0.0 mm 0.00 in0.0 mm 0.00 in0.0 mm
02:29 AM 67.1°F19.5°C 62.1°F16.7°C 84% 3.1 mph NE5.0 kmh NE 10.7 mph17.2 kmh 29.89 in1012.2 mb 0.00 in0.0 mm 0.00 in0.0 mm 0.00 in0.0 mm
02:28 AM 66.9°F19.4°C 62.0°F16.7°C 84% 3.1 mph NE5.0 kmh NE 10.7 mph17.2 kmh 29.89 in1012.2 mb 0.00 in0.0 mm 0.00 in0.0 mm 0.00 in0.0 mm
02:27 AM 67.1°F19.5°C 62.1°F16.7°C 84% 4.5 mph NE7.2 kmh NE 10.7 mph17.2 kmh 29.89 in1012.2 mb 0.00 in0.0 mm 0.00 in0.0 mm 0.00 in0.0 mm
02:26 AM 66.9°F19.4°C 62.0°F16.7°C 84% 3.1 mph NE5.0 kmh NE 10.7 mph17.2 kmh 29.90 in1012.5 mb 0.00 in0.0 mm 0.00 in0.0 mm 0.00 in0.0 mm
02:25 AM 67.1°F19.5°C 62.1°F16.7°C 84% 1.6 mph NE2.6 kmh NE 10.7 mph17.2 kmh 29.90 in1012.5 mb 0.00 in0.0 mm 0.00 in0.0 mm 0.00 in0.0 mm
02:24 AM 67.1°F19.5°C 62.1°F16.7°C 84% 4.5 mph NE7.2 kmh NE 10.7 mph17.2 kmh 29.90 in1012.5 mb 0.00 in0.0 mm 0.00 in0.0 mm 0.00 in0.0 mm
02:23 AM 67.1°F19.5°C 62.1°F16.7°C 84% 3.1 mph NE5.0 kmh NE 10.7 mph17.2 kmh 29.90 in1012.5 mb 0.00 in0.0 mm 0.00 in0.0 mm 0.00 in0.0 mm
02:22 AM 67.1°F19.5°C 62.1°F16.7°C 84% 3.8 mph NE6.1 kmh NE 10.7 mph17.2 kmh 29.90 in1012.5 mb 0.00 in0.0 mm 0.00 in0.0 mm 0.00 in0.0 mm
02:21 AM 67.1°F19.5°C 62.1°F16.7°C 84% 3.1 mph NE5.0 kmh NE 9.2 mph14.8 kmh 29.90 in1012.5 mb 0.00 in0.0 mm 0.00 in0.0 mm 0.00 in0.0 mm
02:20 AM 66.9°F19.4°C 62.0°F16.7°C 84% 2.2 mph NE3.5 kmh NE 9.2 mph14.8 kmh 29.90 in1012.5 mb 0.00 in0.0 mm 0.00 in0.0 mm 0.00 in0.0 mm
02:19 AM 66.9°F19.4°C 62.0°F16.7°C 84% 3.8 mph NE6.1 kmh NE 9.2 mph14.8 kmh 29.90 in1012.5 mb 0.00 in0.0 mm 0.00 in0.0 mm 0.00 in0.0 mm
02:18 AM 67.1°F19.5°C 62.1°F16.7°C 84% 3.1 mph NE5.0 kmh NE 7.6 mph12.2 kmh 29.90 in1012.5 mb 0.00 in0.0 mm 0.00 in0.0 mm 0.00 in0.0 mm
02:17 AM 66.9°F19.4°C 62.0°F16.7°C 84% 4.5 mph NE7.2 kmh NE 7.6 mph12.2 kmh 29.90 in1012.5 mb 0.00 in0.0 mm 0.00 in0.0 mm 0.00 in0.0 mm
02:16 AM 67.1°F19.5°C 62.1°F16.7°C 84% 3.1 mph NE5.0 kmh NE 6.9 mph11.1 kmh 29.91 in1012.9 mb 0.00 in0.0 mm 0.00 in0.0 mm 0.00 in0.0 mm
02:15 AM 67.1°F19.5°C 62.1°F16.7°C 84% 3.8 mph NE6.1 kmh NE 10.7 mph17.2 kmh 29.90 in1012.5 mb 0.00 in0.0 mm 0.00 in0.0 mm 0.00 in0.0 mm
02:14 AM 67.1°F19.5°C 62.1°F16.7°C 84% 3.8 mph NE6.1 kmh NE 10.7 mph17.2 kmh 29.90 in1012.5 mb 0.00 in0.0 mm 0.00 in0.0 mm 0.00 in0.0 mm
02:13 AM 67.1°F19.5°C 62.1°F16.7°C 84% 3.1 mph NE5.0 kmh NE 10.7 mph17.2 kmh 29.91 in1012.9 mb 0.00 in0.0 mm 0.00 in0.0 mm 0.00 in0.0 mm
02:12 AM 67.1°F19.5°C 62.1°F16.7°C 84% 3.1 mph NE5.0 kmh NE 10.7 mph17.2 kmh 29.91 in1012.9 mb 0.00 in0.0 mm 0.00 in0.0 mm 0.00 in0.0 mm
02:11 AM 67.1°F19.5°C 62.1°F16.7°C 84% 3.8 mph NE6.1 kmh NE 10.7 mph17.2 kmh 29.90 in1012.5 mb 0.00 in0.0 mm 0.00 in0.0 mm 0.00 in0.0 mm
02:10 AM 67.1°F19.5°C 62.1°F16.7°C 84% 2.2 mph NE3.5 kmh NE 10.7 mph17.2 kmh 29.90 in1012.5 mb 0.00 in0.0 mm 0.00 in0.0 mm 0.00 in0.0 mm
02:09 AM 67.1°F19.5°C 62.1°F16.7°C 84% 2.2 mph NE3.5 kmh NE 10.7 mph17.2 kmh 29.90 in1012.5 mb 0.00 in0.0 mm 0.00 in0.0 mm 0.00 in0.0 mm
02:08 AM 67.1°F19.5°C 62.1°F16.7°C 84% 3.1 mph NE5.0 kmh NE 10.7 mph17.2 kmh 29.91 in1012.9 mb 0.00 in0.0 mm 0.00 in0.0 mm 0.00 in0.0 mm
02:07 AM 67.1°F19.5°C 62.1°F16.7°C 84% 3.1 mph NE5.0 kmh NE 10.7 mph17.2 kmh 29.90 in1012.5 mb 0.00 in0.0 mm 0.00 in0.0 mm 0.00 in0.0 mm
02:06 AM 67.1°F19.5°C 62.1°F16.7°C 84% 5.4 mph NE8.7 kmh NE 10.7 mph17.2 kmh 29.90 in1012.5 mb 0.00 in0.0 mm 0.00 in0.0 mm 0.00 in0.0 mm
02:05 AM 67.1°F19.5°C 62.1°F16.7°C 84% 4.5 mph NE7.2 kmh NE 12.1 mph19.5 kmh 29.91 in1012.9 mb 0.00 in0.0 mm 0.00 in0.0 mm 0.00 in0.0 mm
02:04 AM 67.1°F19.5°C 62.1°F16.7°C 84% 3.8 mph NE6.1 kmh NE 12.1 mph19.5 kmh 29.90 in1012.5 mb 0.00 in0.0 mm 0.00 in0.0 mm 0.00 in0.0 mm
02:03 AM 67.1°F19.5°C 62.1°F16.7°C 84% 3.1 mph NE5.0 kmh NE 12.1 mph19.5 kmh 29.90 in1012.5 mb 0.00 in0.0 mm 0.00 in0.0 mm 0.00 in0.0 mm
02:02 AM 67.1°F19.5°C 62.1°F16.7°C 84% 4.5 mph NE7.2 kmh NE 12.1 mph19.5 kmh 29.90 in1012.5 mb 0.00 in0.0 mm 0.00 in0.0 mm 0.00 in0.0 mm
02:01 AM 66.9°F19.4°C 62.0°F16.7°C 84% 3.1 mph NE5.0 kmh NE 12.1 mph19.5 kmh 29.90 in1012.5 mb 0.00 in0.0 mm 0.00 in0.0 mm 0.00 in0.0 mm
02:00 AM 67.1°F19.5°C 62.1°F16.7°C 84% 4.5 mph NE7.2 kmh NE 12.1 mph19.5 kmh 29.91 in1012.9 mb 0.00 in0.0 mm 0.00 in0.0 mm 0.00 in0.0 mm
01:59 AM 67.1°F19.5°C 62.1°F16.7°C 84% 3.8 mph NNE6.1 kmh NNE 12.1 mph19.5 kmh 29.90 in1012.5 mb 0.00 in0.0 mm 0.00 in0.0 mm 0.00 in0.0 mm
01:58 AM 67.1°F19.5°C 62.1°F16.7°C 84% 4.5 mph N7.2 kmh N 12.1 mph19.5 kmh 29.90 in1012.5 mb 0.00 in0.0 mm 0.00 in0.0 mm 0.00 in0.0 mm
01:57 AM 66.9°F19.4°C 62.0°F16.7°C 84% 3.8 mph N6.1 kmh N 12.1 mph19.5 kmh 29.91 in1012.9 mb 0.00 in0.0 mm 0.00 in0.0 mm 0.00 in0.0 mm
01:56 AM 66.9°F19.4°C 62.0°F16.7°C 84% 4.5 mph NNE7.2 kmh NNE 12.1 mph19.5 kmh 29.91 in1012.9 mb 0.00 in0.0 mm 0.00 in0.0 mm 0.00 in0.0 mm
01:55 AM 66.9°F19.4°C 62.0°F16.7°C 84% 5.4 mph NNE8.7 kmh NNE 12.1 mph19.5 kmh 29.90 in1012.5 mb 0.00 in0.0 mm 0.00 in0.0 mm 0.00 in0.0 mm
01:54 AM 67.1°F19.5°C 62.1°F16.7°C 84% 3.8 mph NNE6.1 kmh NNE 9.8 mph15.8 kmh 29.90 in1012.5 mb 0.00 in0.0 mm 0.00 in0.0 mm 0.00 in0.0 mm
01:53 AM 67.1°F19.5°C 62.1°F16.7°C 84% 2.2 mph N3.5 kmh N 9.2 mph14.8 kmh 29.90 in1012.5 mb 0.00 in0.0 mm 0.00 in0.0 mm 0.00 in0.0 mm
01:52 AM 67.1°F19.5°C 62.1°F16.7°C 84% 1.6 mph N2.6 kmh N 9.8 mph15.8 kmh 29.91 in1012.9 mb 0.00 in0.0 mm 0.00 in0.0 mm 0.00 in0.0 mm
01:51 AM 67.1°F19.5°C 62.1°F16.7°C 84% 1.6 mph N2.6 kmh N 9.8 mph15.8 kmh 29.91 in1012.9 mb 0.00 in0.0 mm 0.00 in0.0 mm 0.00 in0.0 mm
01:50 AM 67.1°F19.5°C 62.1°F16.7°C 84% 3.1 mph NNE5.0 kmh NNE 11.4 mph18.3 kmh 29.91 in1012.9 mb 0.00 in0.0 mm 0.00 in0.0 mm 0.00 in0.0 mm
01:49 AM 67.1°F19.5°C 62.1°F16.7°C 84% 3.8 mph NE6.1 kmh NE 11.4 mph18.3 kmh 29.91 in1012.9 mb 0.00 in0.0 mm 0.00 in0.0 mm 0.00 in0.0 mm
01:48 AM 67.1°F19.5°C 62.1°F16.7°C 84% 3.8 mph NE6.1 kmh NE 11.4 mph18.3 kmh 29.91 in1012.9 mb 0.00 in0.0 mm 0.00 in0.0 mm 0.00 in0.0 mm
01:47 AM 67.1°F19.5°C 62.1°F16.7°C 84% 3.1 mph NE5.0 kmh NE 11.4 mph18.3 kmh 29.91 in1012.9 mb 0.00 in0.0 mm 0.00 in0.0 mm 0.00 in0.0 mm
01:46 AM 67.1°F19.5°C 62.1°F16.7°C 84% 3.8 mph NE6.1 kmh NE 11.4 mph18.3 kmh 29.91 in1012.9 mb 0.00 in0.0 mm 0.00 in0.0 mm 0.00 in0.0 mm
01:45 AM 67.1°F19.5°C 62.1°F16.7°C 84% 3.8 mph NE6.1 kmh NE 11.4 mph18.3 kmh 29.91 in1012.9 mb 0.00 in0.0 mm 0.00 in0.0 mm 0.00 in0.0 mm
01:44 AM 67.1°F19.5°C 62.1°F16.7°C 84% 2.2 mph NE3.5 kmh NE 11.4 mph18.3 kmh 29.91 in1012.9 mb 0.00 in0.0 mm 0.00 in0.0 mm 0.00 in0.0 mm
01:43 AM 67.1°F19.5°C 62.1°F16.7°C 84% 1.6 mph NE2.6 kmh NE 11.4 mph18.3 kmh 29.91 in1012.9 mb 0.00 in0.0 mm 0.00 in0.0 mm 0.00 in0.0 mm
01:42 AM 67.1°F19.5°C 62.1°F16.7°C 84% 5.4 mph ENE8.7 kmh ENE 11.4 mph18.3 kmh 29.91 in1012.9 mb 0.00 in0.0 mm 0.00 in0.0 mm 0.00 in0.0 mm
01:41 AM 67.1°F19.5°C 62.1°F16.7°C 84% 6.0 mph ENE9.7 kmh ENE 11.4 mph18.3 kmh 29.91 in1012.9 mb 0.00 in0.0 mm 0.00 in0.0 mm 0.00 in0.0 mm
01:40 AM 67.1°F19.5°C 62.1°F16.7°C 84% 3.8 mph ENE6.1 kmh ENE 10.7 mph17.2 kmh 29.91 in1012.9 mb 0.00 in0.0 mm 0.00 in0.0 mm 0.00 in0.0 mm
01:39 AM 67.1°F19.5°C 62.1°F16.7°C 84% 4.5 mph NE7.2 kmh NE 10.7 mph17.2 kmh 29.91 in1012.9 mb 0.00 in0.0 mm 0.00 in0.0 mm 0.00 in0.0 mm
01:38 AM 67.1°F19.5°C 62.1°F16.7°C 84% 3.1 mph ENE5.0 kmh ENE 10.7 mph17.2 kmh 29.91 in1012.9 mb 0.00 in0.0 mm 0.00 in0.0 mm 0.00 in0.0 mm
01:37 AM 67.1°F19.5°C 62.1°F16.7°C 84% 3.8 mph ENE6.1 kmh ENE 10.7 mph17.2 kmh 29.91 in1012.9 mb 0.00 in0.0 mm 0.00 in0.0 mm 0.00 in0.0 mm
01:36 AM 67.1°F19.5°C 62.1°F16.7°C 84% 2.2 mph NE3.5 kmh NE 10.7 mph17.2 kmh 29.91 in1012.9 mb 0.00 in0.0 mm 0.00 in0.0 mm 0.00 in0.0 mm
01:35 AM 67.1°F19.5°C 62.1°F16.7°C 84% 4.5 mph NE7.2 kmh NE 10.7 mph17.2 kmh 29.91 in1012.9 mb 0.00 in0.0 mm 0.00 in0.0 mm 0.00 in0.0 mm
01:34 AM 67.1°F19.5°C 62.1°F16.7°C 84% 3.8 mph NE6.1 kmh NE 10.7 mph17.2 kmh 29.91 in1012.9 mb 0.00 in0.0 mm 0.00 in0.0 mm 0.00 in0.0 mm
01:33 AM 67.1°F19.5°C 62.1°F16.7°C 84% 6.0 mph NE9.7 kmh NE 10.7 mph17.2 kmh 29.91 in1012.9 mb 0.00 in0.0 mm 0.00 in0.0 mm 0.00 in0.0 mm
01:32 AM 67.1°F19.5°C 62.1°F16.7°C 84% 4.5 mph NE7.2 kmh NE 9.8 mph15.8 kmh 29.91 in1012.9 mb 0.00 in0.0 mm 0.00 in0.0 mm 0.00 in0.0 mm
01:31 AM 66.9°F19.4°C 62.0°F16.7°C 84% 3.1 mph NE5.0 kmh NE 7.6 mph12.2 kmh 29.91 in1012.9 mb 0.00 in0.0 mm 0.00 in0.0 mm 0.00 in0.0 mm
01:30 AM 67.1°F19.5°C 62.1°F16.7°C 84% 3.1 mph NE5.0 kmh NE 7.6 mph12.2 kmh 29.91 in1012.9 mb 0.00 in0.0 mm 0.00 in0.0 mm 0.00 in0.0 mm
01:29 AM 67.1°F19.5°C 62.1°F16.7°C 84% 3.1 mph NE5.0 kmh NE 8.3 mph13.4 kmh 29.91 in1012.9 mb 0.00 in0.0 mm 0.00 in0.0 mm 0.00 in0.0 mm
01:28 AM 67.1°F19.5°C 61.8°F16.6°C 83% 3.8 mph NNE6.1 kmh NNE 9.2 mph14.8 kmh 29.91 in1012.9 mb 0.00 in0.0 mm 0.00 in0.0 mm 0.00 in0.0 mm
01:27 AM 67.3°F19.6°C 62.0°F16.7°C 83% 2.2 mph NNE3.5 kmh NNE 9.2 mph14.8 kmh 29.91 in1012.9 mb 0.00 in0.0 mm 0.00 in0.0 mm 0.00 in0.0 mm
01:26 AM 67.3°F19.6°C 62.3°F16.8°C 84% 3.8 mph NNE6.1 kmh NNE 9.2 mph14.8 kmh 29.91 in1012.9 mb 0.00 in0.0 mm 0.00 in0.0 mm 0.00 in0.0 mm
01:25 AM 67.1°F19.5°C 61.8°F16.6°C 83% 3.1 mph NE5.0 kmh NE 9.2 mph14.8 kmh 29.91 in1012.9 mb 0.00 in0.0 mm 0.00 in0.0 mm 0.00 in0.0 mm
01:24 AM 67.1°F19.5°C 62.1°F16.7°C 84% 2.2 mph NE3.5 kmh NE 9.2 mph14.8 kmh 29.91 in1012.9 mb 0.00 in0.0 mm 0.00 in0.0 mm 0.00 in0.0 mm
01:23 AM 67.3°F19.6°C 62.3°F16.8°C 84% 3.1 mph NNE5.0 kmh NNE 9.2 mph14.8 kmh 29.91 in1012.9 mb 0.00 in0.0 mm 0.00 in0.0 mm 0.00 in0.0 mm
01:22 AM 67.1°F19.5°C 61.8°F16.6°C 83% 1.6 mph NNE2.6 kmh NNE 9.2 mph14.8 kmh 29.91 in1012.9 mb 0.00 in0.0 mm 0.00 in0.0 mm 0.00 in0.0 mm
01:21 AM 67.3°F19.6°C 62.0°F16.7°C 83% 2.2 mph NNE3.5 kmh NNE 9.2 mph14.8 kmh 29.91 in1012.9 mb 0.00 in0.0 mm 0.00 in0.0 mm 0.00 in0.0 mm
01:20 AM 67.1°F19.5°C 61.8°F16.6°C 83% 3.8 mph NNE6.1 kmh NNE 9.2 mph14.8 kmh 29.91 in1012.9 mb 0.00 in0.0 mm 0.00 in0.0 mm 0.00 in0.0 mm
01:19 AM 67.1°F19.5°C 61.8°F16.6°C 83% 4.5 mph NNE7.2 kmh NNE 9.2 mph14.8 kmh 29.91 in1012.9 mb 0.00 in0.0 mm 0.00 in0.0 mm 0.00 in0.0 mm
01:18 AM 67.3°F19.6°C 62.0°F16.7°C 83% 4.5 mph NE7.2 kmh NE 9.8 mph15.8 kmh 29.91 in1012.9 mb 0.00 in0.0 mm 0.00 in0.0 mm 0.00 in0.0 mm
01:17 AM 67.3°F19.6°C 62.0°F16.7°C 83% 1.6 mph NE2.6 kmh NE 9.8 mph15.8 kmh 29.91 in1012.9 mb 0.00 in0.0 mm 0.00 in0.0 mm 0.00 in0.0 mm
01:16 AM 67.1°F19.5°C 61.8°F16.6°C 83% 2.2 mph NE3.5 kmh NE 9.8 mph15.8 kmh 29.91 in1012.9 mb 0.00 in0.0 mm 0.00 in0.0 mm 0.00 in0.0 mm
01:15 AM 67.3°F19.6°C 62.0°F16.7°C 83% 2.2 mph NE3.5 kmh NE 9.8 mph15.8 kmh 29.91 in1012.9 mb 0.00 in0.0 mm 0.00 in0.0 mm 0.00 in0.0 mm
01:14 AM 67.3°F19.6°C 62.0°F16.7°C 83% 3.1 mph NNE5.0 kmh NNE 9.8 mph15.8 kmh 29.91 in1012.9 mb 0.00 in0.0 mm 0.00 in0.0 mm 0.00 in0.0 mm
01:13 AM 67.3°F19.6°C 62.0°F16.7°C 83% 3.1 mph NNE5.0 kmh NNE 9.8 mph15.8 kmh 29.91 in1012.9 mb 0.00 in0.0 mm 0.00 in0.0 mm 0.00 in0.0 mm
01:12 AM 67.3°F19.6°C 62.0°F16.7°C 83% 4.5 mph NNE7.2 kmh NNE 9.8 mph15.8 kmh 29.91 in1012.9 mb 0.00 in0.0 mm 0.00 in0.0 mm 0.00 in0.0 mm
01:11 AM 67.3°F19.6°C 62.0°F16.7°C 83% 4.5 mph NE7.2 kmh NE 9.8 mph15.8 kmh 29.91 in1012.9 mb 0.00 in0.0 mm 0.00 in0.0 mm 0.00 in0.0 mm
01:10 AM 66.7°F19.3°C 61.4°F16.3°C 83% 2.2 mph NE3.5 kmh NE 9.8 mph15.8 kmh 29.91 in1012.9 mb 0.00 in0.0 mm 0.00 in0.0 mm 0.00 in0.0 mm
01:09 AM 67.3°F19.6°C 62.0°F16.7°C 83% 5.4 mph NE8.7 kmh NE 9.8 mph15.8 kmh 29.91 in1012.9 mb 0.00 in0.0 mm 0.00 in0.0 mm 0.00 in0.0 mm
01:08 AM 67.3°F19.6°C 62.0°F16.7°C 83% 4.5 mph NE7.2 kmh NE 9.2 mph14.8 kmh 29.91 in1012.9 mb 0.00 in0.0 mm 0.00 in0.0 mm 0.00 in0.0 mm
01:07 AM 67.3°F19.6°C 62.0°F16.7°C 83% 3.8 mph NE6.1 kmh NE 9.2 mph14.8 kmh 29.91 in1012.9 mb 0.00 in0.0 mm 0.00 in0.0 mm 0.00 in0.0 mm
01:06 AM 67.3°F19.6°C 62.0°F16.7°C 83% 3.1 mph NE5.0 kmh NE 9.8 mph15.8 kmh 29.91 in1012.9 mb 0.00 in0.0 mm 0.00 in0.0 mm 0.00 in0.0 mm
01:05 AM 67.5°F19.7°C 62.1°F16.7°C 83% 3.1 mph NE5.0 kmh NE 9.8 mph15.8 kmh 29.91 in1012.9 mb 0.00 in0.0 mm 0.00 in0.0 mm 0.00 in0.0 mm
01:04 AM 67.5°F19.7°C 62.1°F16.7°C 83% 3.1 mph NE5.0 kmh NE 9.8 mph15.8 kmh 29.91 in1012.9 mb 0.00 in0.0 mm 0.00 in0.0 mm 0.00 in0.0 mm
01:03 AM 67.5°F19.7°C 62.1°F16.7°C 83% 3.8 mph NE6.1 kmh NE 9.8 mph15.8 kmh 29.91 in1012.9 mb 0.00 in0.0 mm 0.00 in0.0 mm 0.00 in0.0 mm
01:02 AM 67.5°F19.7°C 62.1°F16.7°C 83% 2.2 mph NE3.5 kmh NE 9.8 mph15.8 kmh 29.91 in1012.9 mb 0.00 in0.0 mm 0.00 in0.0 mm 0.00 in0.0 mm
01:01 AM 67.3°F19.6°C 62.0°F16.7°C 83% 4.5 mph NE7.2 kmh NE 9.8 mph15.8 kmh 29.91 in1012.9 mb 0.00 in0.0 mm 0.00 in0.0 mm 0.00 in0.0 mm
01:00 AM 67.3°F19.6°C 62.0°F16.7°C 83% 3.1 mph NE5.0 kmh NE 9.8 mph15.8 kmh 29.91 in1012.9 mb 0.00 in0.0 mm 0.00 in0.0 mm 0.00 in0.0 mm
12:59 AM 67.3°F19.6°C 62.0°F16.7°C 83% 3.8 mph NE6.1 kmh NE 9.8 mph15.8 kmh 29.91 in1012.9 mb 0.00 in0.0 mm 0.00 in0.0 mm 0.00 in0.0 mm
12:58 AM 67.5°F19.7°C 62.1°F16.7°C 83% 5.4 mph NE8.7 kmh NE 9.8 mph15.8 kmh 29.91 in1012.9 mb 0.00 in0.0 mm 0.00 in0.0 mm 0.00 in0.0 mm
12:57 AM 67.5°F19.7°C 62.1°F16.7°C 83% 5.4 mph NE8.7 kmh NE 9.8 mph15.8 kmh 29.91 in1012.9 mb 0.00 in0.0 mm 0.00 in0.0 mm 0.00 in0.0 mm
12:56 AM 67.5°F19.7°C 62.1°F16.7°C 83% 5.4 mph NNE8.7 kmh NNE 9.8 mph15.8 kmh 29.91 in1012.9 mb 0.00 in0.0 mm 0.00 in0.0 mm 0.00 in0.0 mm
12:55 AM 67.5°F19.7°C 62.1°F16.7°C 83% 5.4 mph NE8.7 kmh NE 9.8 mph15.8 kmh 29.92 in1013.2 mb 0.00 in0.0 mm 0.00 in0.0 mm 0.00 in0.0 mm
12:54 AM 67.3°F19.6°C 62.0°F16.7°C 83% 5.4 mph NE8.7 kmh NE 9.8 mph15.8 kmh 29.91 in1012.9 mb 0.00 in0.0 mm 0.00 in0.0 mm 0.00 in0.0 mm
12:53 AM 67.5°F19.7°C 62.1°F16.7°C 83% 3.8 mph NE6.1 kmh NE 9.8 mph15.8 kmh 29.91 in1012.9 mb 0.00 in0.0 mm 0.00 in0.0 mm 0.00 in0.0 mm
12:52 AM 67.5°F19.7°C 62.1°F16.7°C 83% 4.5 mph NE7.2 kmh NE 9.8 mph15.8 kmh 29.91 in1012.9 mb 0.00 in0.0 mm 0.00 in0.0 mm 0.00 in0.0 mm
12:51 AM 67.5°F19.7°C 62.1°F16.7°C 83% 3.1 mph NE5.0 kmh NE 12.1 mph19.5 kmh 29.91 in1012.9 mb 0.00 in0.0 mm 0.00 in0.0 mm 0.00 in0.0 mm
12:50 AM 67.5°F19.7°C 62.1°F16.7°C 83% 3.8 mph NE6.1 kmh NE 12.1 mph19.5 kmh 29.91 in1012.9 mb 0.00 in0.0 mm 0.00 in0.0 mm 0.00 in0.0 mm
12:49 AM 67.5°F19.7°C 62.1°F16.7°C 83% 4.5 mph NE7.2 kmh NE 12.1 mph19.5 kmh 29.91 in1012.9 mb 0.00 in0.0 mm 0.00 in0.0 mm 0.00 in0.0 mm
12:48 AM 67.5°F19.7°C 62.1°F16.7°C 83% 5.4 mph NE8.7 kmh NE 12.1 mph19.5 kmh 29.91 in1012.9 mb 0.00 in0.0 mm 0.00 in0.0 mm 0.00 in0.0 mm
12:47 AM 67.5°F19.7°C 62.1°F16.7°C 83% 3.8 mph NE6.1 kmh NE 12.1 mph19.5 kmh 29.91 in1012.9 mb 0.00 in0.0 mm 0.00 in0.0 mm 0.00 in0.0 mm
12:46 AM 67.5°F19.7°C 62.1°F16.7°C 83% 3.1 mph NE5.0 kmh NE 12.1 mph19.5 kmh 29.91 in1012.9 mb 0.00 in0.0 mm 0.00 in0.0 mm 0.00 in0.0 mm
12:45 AM 67.5°F19.7°C 62.1°F16.7°C 83% 3.1 mph NE5.0 kmh NE 12.1 mph19.5 kmh 29.92 in1013.2 mb 0.00 in0.0 mm 0.00 in0.0 mm 0.00 in0.0 mm
12:44 AM 67.5°F19.7°C 62.1°F16.7°C 83% 3.8 mph NE6.1 kmh NE 12.1 mph19.5 kmh 29.91 in1012.9 mb 0.00 in0.0 mm 0.00 in0.0 mm 0.00 in0.0 mm
12:43 AM 67.5°F19.7°C 62.1°F16.7°C 83% 4.5 mph NE7.2 kmh NE 12.1 mph19.5 kmh 29.92 in1013.2 mb 0.00 in0.0 mm 0.00 in0.0 mm 0.00 in0.0 mm
12:42 AM 67.5°F19.7°C 62.1°F16.7°C 83% 5.4 mph NE8.7 kmh NE 12.1 mph19.5 kmh 29.91 in1012.9 mb 0.00 in0.0 mm 0.00 in0.0 mm 0.00 in0.0 mm
12:41 AM 67.5°F19.7°C 62.1°F16.7°C 83% 5.4 mph NE8.7 kmh NE 12.1 mph19.5 kmh 29.92 in1013.2 mb 0.00 in0.0 mm 0.00 in0.0 mm 0.00 in0.0 mm
12:40 AM 67.5°F19.7°C 62.1°F16.7°C 83% 4.5 mph NE7.2 kmh NE 12.1 mph19.5 kmh 29.92 in1013.2 mb 0.00 in0.0 mm 0.00 in0.0 mm 0.00 in0.0 mm
12:39 AM 67.5°F19.7°C 62.1°F16.7°C 83% 5.4 mph NE8.7 kmh NE 12.1 mph19.5 kmh 29.92 in1013.2 mb 0.00 in0.0 mm 0.00 in0.0 mm 0.00 in0.0 mm
12:38 AM 67.5°F19.7°C 62.1°F16.7°C 83% 3.8 mph NE6.1 kmh NE 12.1 mph19.5 kmh 29.92 in1013.2 mb 0.00 in0.0 mm 0.00 in0.0 mm 0.00 in0.0 mm
12:37 AM 67.5°F19.7°C 62.1°F16.7°C 83% 3.8 mph NE6.1 kmh NE 13.0 mph20.9 kmh 29.92 in1013.2 mb 0.00 in0.0 mm 0.00 in0.0 mm 0.00 in0.0 mm
12:36 AM 67.5°F19.7°C 62.1°F16.7°C 83% 6.0 mph NE9.7 kmh NE 13.0 mph20.9 kmh 29.92 in1013.2 mb 0.00 in0.0 mm 0.00 in0.0 mm 0.00 in0.0 mm
12:35 AM 67.5°F19.7°C 62.1°F16.7°C 83% 3.8 mph NNE6.1 kmh NNE 13.0 mph20.9 kmh 29.92 in1013.2 mb 0.00 in0.0 mm 0.00 in0.0 mm 0.00 in0.0 mm
12:34 AM 67.5°F19.7°C 62.1°F16.7°C 83% 5.4 mph NNE8.7 kmh NNE 13.0 mph20.9 kmh 29.92 in1013.2 mb 0.00 in0.0 mm 0.00 in0.0 mm 0.00 in0.0 mm
12:33 AM 67.5°F19.7°C 62.1°F16.7°C 83% 3.8 mph NE6.1 kmh NE 13.0 mph20.9 kmh 29.92 in1013.2 mb 0.00 in0.0 mm 0.00 in0.0 mm 0.00 in0.0 mm
12:32 AM 67.6°F19.8°C 62.3°F16.8°C 83% 6.0 mph NNE9.7 kmh NNE 13.0 mph20.9 kmh 29.92 in1013.2 mb 0.00 in0.0 mm 0.00 in0.0 mm 0.00 in0.0 mm
12:31 AM 67.6°F19.8°C 62.3°F16.8°C 83% 3.1 mph NNE5.0 kmh NNE 13.0 mph20.9 kmh 29.92 in1013.2 mb 0.00 in0.0 mm 0.00 in0.0 mm 0.00 in0.0 mm
12:30 AM 67.5°F19.7°C 62.1°F16.7°C 83% 2.2 mph N3.5 kmh N 13.0 mph20.9 kmh 29.92 in1013.2 mb 0.00 in0.0 mm 0.00 in0.0 mm 0.00 in0.0 mm
12:29 AM 67.6°F19.8°C 62.3°F16.8°C 83% 3.1 mph NNE5.0 kmh NNE 13.0 mph20.9 kmh 29.92 in1013.2 mb 0.00 in0.0 mm 0.00 in0.0 mm 0.00 in0.0 mm
12:28 AM 67.6°F19.8°C 62.3°F16.8°C 83% 3.8 mph NNE6.1 kmh NNE 13.0 mph20.9 kmh 29.92 in1013.2 mb 0.00 in0.0 mm 0.00 in0.0 mm 0.00 in0.0 mm
12:27 AM 67.6°F19.8°C 62.3°F16.8°C 83% 6.0 mph NNE9.7 kmh NNE 13.0 mph20.9 kmh 29.92 in1013.2 mb 0.00 in0.0 mm 0.00 in0.0 mm 0.00 in0.0 mm
12:26 AM 67.6°F19.8°C 62.0°F16.7°C 82% 6.0 mph NE9.7 kmh NE 13.0 mph20.9 kmh 29.92 in1013.2 mb 0.00 in0.0 mm 0.00 in0.0 mm 0.00 in0.0 mm
12:25 AM 67.6°F19.8°C 62.3°F16.8°C 83% 4.5 mph NE7.2 kmh NE 13.0 mph20.9 kmh 29.92 in1013.2 mb 0.00 in0.0 mm 0.00 in0.0 mm 0.00 in0.0 mm
12:24 AM 67.6°F19.8°C 62.3°F16.8°C 83% 6.0 mph NE9.7 kmh NE 16.8 mph27.0 kmh 29.92 in1013.2 mb 0.00 in0.0 mm 0.00 in0.0 mm 0.00 in0.0 mm
12:23 AM 67.6°F19.8°C 62.3°F16.8°C 83% 3.8 mph NNE6.1 kmh NNE 16.8 mph27.0 kmh 29.92 in1013.2 mb 0.00 in0.0 mm 0.00 in0.0 mm 0.00 in0.0 mm
12:22 AM 67.6°F19.8°C 62.3°F16.8°C 83% 5.4 mph NE8.7 kmh NE 16.8 mph27.0 kmh 29.92 in1013.2 mb 0.00 in0.0 mm 0.00 in0.0 mm 0.00 in0.0 mm
12:21 AM 67.6°F19.8°C 62.3°F16.8°C 83% 6.0 mph NE9.7 kmh NE 16.8 mph27.0 kmh 29.92 in1013.2 mb 0.00 in0.0 mm 0.00 in0.0 mm 0.00 in0.0 mm
12:20 AM 67.6°F19.8°C 62.3°F16.8°C 83% 3.8 mph NE6.1 kmh NE 16.8 mph27.0 kmh 29.92 in1013.2 mb 0.00 in0.0 mm 0.00 in0.0 mm 0.00 in0.0 mm
12:19 AM 67.8°F19.9°C 62.5°F16.9°C 83% 6.0 mph NE9.7 kmh NE 16.8 mph27.0 kmh 29.92 in1013.2 mb 0.00 in0.0 mm 0.00 in0.0 mm 0.00 in0.0 mm
12:18 AM 67.6°F19.8°C 62.3°F16.8°C 83% 3.8 mph NE6.1 kmh NE 16.8 mph27.0 kmh 29.92 in1013.2 mb 0.00 in0.0 mm 0.00 in0.0 mm 0.00 in0.0 mm
12:17 AM 67.6°F19.8°C 62.3°F16.8°C 83% 8.3 mph NE13.4 kmh NE 16.8 mph27.0 kmh 29.92 in1013.2 mb 0.00 in0.0 mm 0.00 in0.0 mm 0.00 in0.0 mm
12:16 AM 67.6°F19.8°C 62.3°F16.8°C 83% 6.0 mph NNE9.7 kmh NNE 16.8 mph27.0 kmh 29.92 in1013.2 mb 0.00 in0.0 mm 0.00 in0.0 mm 0.00 in0.0 mm
12:15 AM 67.6°F19.8°C 62.3°F16.8°C 83% 6.9 mph NNE11.1 kmh NNE 16.8 mph27.0 kmh 29.92 in1013.2 mb 0.00 in0.0 mm 0.00 in0.0 mm 0.00 in0.0 mm
12:14 AM 67.6°F19.8°C 62.3°F16.8°C 83% 9.8 mph NNE15.8 kmh NNE 17.4 mph28.0 kmh 29.92 in1013.2 mb 0.00 in0.0 mm 0.00 in0.0 mm 0.00 in0.0 mm
12:13 AM 67.6°F19.8°C 62.3°F16.8°C 83% 5.4 mph NE8.7 kmh NE 17.4 mph28.0 kmh 29.92 in1013.2 mb 0.00 in0.0 mm 0.00 in0.0 mm 0.00 in0.0 mm
12:12 AM 67.6°F19.8°C 62.3°F16.8°C 83% 6.9 mph NE11.1 kmh NE 17.4 mph28.0 kmh 29.92 in1013.2 mb 0.00 in0.0 mm 0.00 in0.0 mm 0.00 in0.0 mm
12:11 AM 67.6°F19.8°C 62.3°F16.8°C 83% 5.4 mph NE8.7 kmh NE 17.4 mph28.0 kmh 29.93 in1013.5 mb 0.00 in0.0 mm 0.00 in0.0 mm 0.00 in0.0 mm
12:10 AM 67.8°F19.9°C 62.5°F16.9°C 83% 4.5 mph NE7.2 kmh NE 17.4 mph28.0 kmh 29.93 in1013.5 mb 0.00 in0.0 mm 0.00 in0.0 mm 0.00 in0.0 mm
12:09 AM 67.8°F19.9°C 62.5°F16.9°C 83% 6.9 mph NE11.1 kmh NE 17.4 mph28.0 kmh 29.93 in1013.5 mb 0.00 in0.0 mm 0.00 in0.0 mm 0.00 in0.0 mm
12:08 AM 67.8°F19.9°C 62.5°F16.9°C 83% 6.9 mph NE11.1 kmh NE 17.4 mph28.0 kmh 29.93 in1013.5 mb 0.00 in0.0 mm 0.00 in0.0 mm 0.00 in0.0 mm
12:07 AM 67.8°F19.9°C 62.5°F16.9°C 83% 3.8 mph NE6.1 kmh NE 17.4 mph28.0 kmh 29.93 in1013.5 mb 0.00 in0.0 mm 0.00 in0.0 mm 0.00 in0.0 mm
12:06 AM 67.8°F19.9°C 62.5°F16.9°C 83% 6.9 mph NE11.1 kmh NE 17.4 mph28.0 kmh 29.93 in1013.5 mb 0.00 in0.0 mm 0.00 in0.0 mm 0.00 in0.0 mm
12:05 AM 67.6°F19.8°C 62.3°F16.8°C 83% 5.4 mph NE8.7 kmh NE 17.4 mph28.0 kmh 29.93 in1013.5 mb 0.00 in0.0 mm 0.00 in0.0 mm 0.00 in0.0 mm
12:04 AM 67.6°F19.8°C 62.3°F16.8°C 83% 7.6 mph NE12.2 kmh NE 17.4 mph28.0 kmh 29.93 in1013.5 mb 0.00 in0.0 mm 0.00 in0.0 mm 0.00 in0.0 mm
12:03 AM 67.6°F19.8°C 62.3°F16.8°C 83% 4.5 mph NNE7.2 kmh NNE 14.5 mph23.3 kmh 29.93 in1013.5 mb 0.00 in0.0 mm 0.00 in0.0 mm 0.00 in0.0 mm
12:02 AM 67.6°F19.8°C 62.3°F16.8°C 83% 4.5 mph NNE7.2 kmh NNE 14.5 mph23.3 kmh 29.93 in1013.5 mb 0.00 in0.0 mm 0.00 in0.0 mm 0.00 in0.0 mm
12:01 AM 67.8°F19.9°C 62.5°F16.9°C 83% 3.8 mph NNE6.1 kmh NNE 14.5 mph23.3 kmh 29.93 in1013.5 mb 0.00 in0.0 mm 0.00 in0.0 mm 0.00 in0.0 mm
12:00 AM 67.6°F19.8°C 62.3°F16.8°C 83% 6.9 mph NNE11.1 kmh NNE 14.5 mph23.3 kmh 29.93 in1013.5 mb 0.00 in0.0 mm 0.00 in0.0 mm 0.00 in0.0 mm